Time;durP1;ratioP1;P1;durP2;ratioP2;P2;SDS_P1;SDS_P2;PMS_P1;PMS_P2;Temp;Humidity;BMP_temperature;BMP_pressure;BME280_temperature;BME280_humidity;BME280_pressure;Samples;Min_cycle;Max_cycle;Signal;HPM_P1;HPM_P2
2022/11/07 00:00:15;;;;;;;1999.90;999.90;;;10.20;99.90;;;;;;5049964;28;20486;-68
2022/11/07 00:02:42;;;;;;;1999.90;999.90;;;10.20;99.90;;;;;;5046432;28;20467;-68
2022/11/07 00:05:09;;;;;;;1999.90;999.90;;;10.40;99.90;;;;;;5044914;28;20457;-68
2022/11/07 00:07:36;;;;;;;1999.90;999.90;;;10.30;99.90;;;;;;5047590;28;20454;-68
2022/11/07 00:10:04;;;;;;;1999.90;999.90;;;10.30;99.90;;;;;;5047359;28;20485;-68
2022/11/07 00:12:34;;;;;;;1999.90;999.90;;;10.30;99.90;;;;;;5047067;28;20846;-68
2022/11/07 00:15:01;;;;;;;1999.90;999.90;;;10.40;99.90;;;;;;5047284;28;20474;-68
2022/11/07 00:17:27;;;;;;;1999.90;999.90;;;10.30;99.90;;;;;;5049211;28;20466;-67
2022/11/07 00:19:54;;;;;;;1999.90;999.90;;;10.20;99.90;;;;;;5048961;28;20497;-69
2022/11/07 00:22:21;;;;;;;1999.90;999.90;;;10.30;99.90;;;;;;5049115;28;20461;-68
2022/11/07 00:24:48;;;;;;;1999.90;999.90;;;10.30;99.90;;;;;;5048810;28;20450;-67
2022/11/07 00:27:14;;;;;;;1999.90;999.90;;;10.50;99.90;;;;;;5048224;28;20907;-67
2022/11/07 00:29:42;;;;;;;1999.90;999.90;;;10.30;99.90;;;;;;5048729;28;20489;-68
2022/11/07 00:32:09;;;;;;;1999.90;999.90;;;10.30;99.90;;;;;;5046447;28;21004;-68
2022/11/07 00:34:36;;;;;;;1999.90;999.90;;;10.20;99.90;;;;;;5048857;28;20482;-68
2022/11/07 00:37:02;;;;;;;1999.90;999.90;;;10.20;99.90;;;;;;5048972;28;20477;-68
2022/11/07 00:39:29;;;;;;;1999.90;999.90;;;10.20;99.90;;;;;;5047940;28;20463;-68
2022/11/07 00:41:56;;;;;;;1999.90;999.90;;;10.20;99.90;;;;;;5049438;28;20462;-69
2022/11/07 00:44:23;;;;;;;1999.90;999.90;;;10.30;99.90;;;;;;5058044;28;20460;-68
2022/11/07 00:46:51;;;;;;;1999.90;999.90;;;10.20;99.90;;;;;;5068861;28;20458;-68
2022/11/07 00:49:18;;;;;;;1999.90;999.90;;;10.20;99.90;;;;;;5068169;28;20500;-68
2022/11/07 00:51:45;;;;;;;1999.90;999.90;;;10.20;99.90;;;;;;5053890;28;20513;-67
2022/11/07 00:54:11;;;;;;;1999.90;999.90;;;10.20;99.90;;;;;;5046974;28;20875;-68
2022/11/07 00:56:38;;;;;;;1999.90;999.90;;;10.20;99.90;;;;;;5048355;28;20849;-67
2022/11/07 00:59:05;;;;;;;1999.90;999.90;;;10.20;99.90;;;;;;5049709;28;20494;-68
2022/11/07 01:01:33;;;;;;;1999.90;999.90;;;10.40;99.90;;;;;;5044262;28;20478;-68
2022/11/07 01:06:47;;;;;;;1999.90;999.90;;;10.20;99.90;;;;;;5047393;28;20482;-68
2022/11/07 01:09:16;;;;;;;1999.90;999.90;;;10.20;99.90;;;;;;5047821;28;20461;-68
2022/11/07 01:11:43;;;;;;;1999.90;999.90;;;10.20;99.90;;;;;;5047166;28;20818;-68
2022/11/07 01:14:11;;;;;;;1999.90;999.90;;;10.20;99.90;;;;;;5048688;28;20479;-68
2022/11/07 01:16:38;;;;;;;1999.90;999.90;;;10.20;99.90;;;;;;5046181;28;20465;-68
2022/11/07 01:19:07;;;;;;;1999.90;999.90;;;10.20;99.90;;;;;;5049044;28;20954;-69
2022/11/07 01:21:34;;;;;;;1999.90;999.90;;;10.10;99.90;;;;;;5047993;28;20478;-67
2022/11/07 01:24:02;;;;;;;1999.90;999.90;;;10.20;99.90;;;;;;5048480;28;20458;-68
2022/11/07 01:26:29;;;;;;;1999.90;999.90;;;10.20;99.90;;;;;;5047186;28;20466;-68
2022/11/07 01:28:56;;;;;;;1999.90;999.90;;;10.20;99.90;;;;;;5048561;28;20463;-68
2022/11/07 01:31:23;;;;;;;1999.90;999.90;;;10.20;99.90;;;;;;5048803;28;20490;-68
2022/11/07 01:33:50;;;;;;;1999.90;999.90;;;10.20;99.90;;;;;;5048000;28;20825;-68
2022/11/07 01:36:19;;;;;;;1999.90;999.90;;;10.20;99.90;;;;;;5048338;28;20455;-67
2022/11/07 01:38:48;;;;;;;1999.90;999.90;;;10.20;99.90;;;;;;5050156;28;20537;-68
2022/11/07 01:41:24;;;;;;;1999.90;999.90;;;10.20;99.90;;;;;;5051956;28;20473;-68
2022/11/07 01:43:57;;;;;;;1999.90;999.90;;;10.20;99.90;;;;;;5050655;28;20528;-68
2022/11/07 01:46:27;;;;;;;1999.90;999.90;;;10.10;99.90;;;;;;5050943;28;20473;-68
2022/11/07 01:49:05;;;;;;;1999.90;999.90;;;10.10;99.90;;;;;;5051747;28;20463;-68
2022/11/07 01:51:38;;;;;;;1999.90;999.90;;;10.10;99.90;;;;;;5048552;28;20853;-67
2022/11/07 01:54:06;;;;;;;1999.90;999.90;;;10.30;99.90;;;;;;5051391;28;21060;-69
2022/11/07 01:56:35;;;;;;;1999.90;999.90;;;10.00;99.90;;;;;;5049979;28;20463;-68
2022/11/07 01:59:03;;;;;;;1999.90;999.90;;;10.00;99.90;;;;;;5050725;28;20480;-69
2022/11/07 02:01:30;;;;;;;1999.90;999.90;;;10.00;99.90;;;;;;5050821;28;20989;-67
2022/11/07 02:03:59;;;;;;;1999.90;999.90;;;10.00;99.90;;;;;;5051447;28;20489;-68
2022/11/07 02:06:35;;;;;;;1999.90;999.90;;;10.00;99.90;;;;;;5048212;28;20465;-67
2022/11/07 02:09:04;;;;;;;1999.90;999.90;;;9.90;99.90;;;;;;5052397;28;20458;-69
2022/11/07 02:11:31;;;;;;;1999.90;999.90;;;9.90;99.90;;;;;;5048467;28;20482;-68
2022/11/07 02:13:58;;;;;;;1999.90;999.90;;;9.90;99.90;;;;;;5050711;28;20462;-69
2022/11/07 02:16:26;;;;;;;1999.90;999.90;;;9.90;99.90;;;;;;5051634;28;20489;-69
2022/11/07 02:18:53;;;;;;;1999.90;999.90;;;9.90;99.90;;;;;;5052103;28;20466;-69
2022/11/07 02:21:33;;;;;;;1999.90;999.90;;;9.90;99.90;;;;;;5052244;28;20497;-69
2022/11/07 02:24:10;;;;;;;1999.90;999.90;;;9.90;99.90;;;;;;5050657;28;20458;-69
2022/11/07 02:26:39;;;;;;;1999.90;999.90;;;9.90;99.90;;;;;;5048988;28;20458;-68
2022/11/07 02:29:09;;;;;;;1999.90;999.90;;;9.90;99.90;;;;;;5051313;28;20829;-68
2022/11/07 02:31:36;;;;;;;1999.90;999.90;;;10.00;99.90;;;;;;5050947;28;20492;-68
2022/11/07 02:34:03;;;;;;;1999.90;999.90;;;10.00;99.90;;;;;;5051589;28;20470;-68
2022/11/07 02:36:30;;;;;;;1999.90;999.90;;;10.00;99.90;;;;;;5051218;28;20494;-68
2022/11/07 02:38:59;;;;;;;1999.90;999.90;;;10.00;99.90;;;;;;5051160;28;20481;-69
2022/11/07 02:41:31;;;;;;;1999.90;999.90;;;10.00;99.90;;;;;;5046759;28;20481;-68
2022/11/07 02:44:02;;;;;;;1999.90;999.90;;;10.10;99.90;;;;;;5048676;28;20980;-68
2022/11/07 02:46:30;;;;;;;1999.90;999.90;;;10.10;99.90;;;;;;5050445;28;20457;-68
2022/11/07 02:48:59;;;;;;;1999.90;999.90;;;10.10;99.90;;;;;;5051887;28;20485;-68
2022/11/07 02:51:26;;;;;;;1999.90;999.90;;;10.30;99.90;;;;;;5045297;28;21009;-68
2022/11/07 02:53:53;;;;;;;1999.90;999.90;;;10.10;99.90;;;;;;5050775;28;20505;-68
2022/11/07 02:56:21;;;;;;;1999.90;999.90;;;10.10;99.90;;;;;;5050345;28;20872;-68
2022/11/07 02:58:51;;;;;;;1999.90;999.90;;;10.10;99.90;;;;;;5049744;28;20466;-69
2022/11/07 03:01:18;;;;;;;1999.90;999.90;;;10.10;99.90;;;;;;5048468;28;20490;-66
2022/11/07 03:03:47;;;;;;;1999.90;999.90;;;10.10;99.90;;;;;;5046836;28;20810;-68
2022/11/07 03:06:15;;;;;;;1999.90;999.90;;;10.10;99.90;;;;;;5050084;28;20462;-68
2022/11/07 03:08:43;;;;;;;1999.90;999.90;;;10.10;99.90;;;;;;5050854;28;20465;-67
2022/11/07 03:11:11;;;;;;;1999.90;999.90;;;10.20;99.90;;;;;;5051464;28;20478;-69
2022/11/07 03:13:38;;;;;;;1999.90;999.90;;;10.30;99.90;;;;;;5050565;28;20462;-68
2022/11/07 03:16:08;;;;;;;1999.90;999.90;;;10.20;99.90;;;;;;5048871;28;20482;-67
2022/11/07 03:18:35;;;;;;;1999.90;999.90;;;10.20;99.90;;;;;;5048166;28;20468;-68
2022/11/07 03:21:02;;;;;;;1999.90;999.90;;;10.30;99.90;;;;;;5049852;28;20841;-68
2022/11/07 03:23:29;;;;;;;1999.90;999.90;;;10.40;99.90;;;;;;5051512;28;20462;-68
2022/11/07 03:25:56;;;;;;;1999.90;999.90;;;10.40;99.90;;;;;;5046771;28;20454;-68
2022/11/07 03:28:23;;;;;;;1999.90;999.90;;;10.40;99.90;;;;;;5050480;28;20465;-68
2022/11/07 03:30:50;;;;;;;1999.90;999.90;;;10.40;99.90;;;;;;5049480;28;20573;-69
2022/11/07 03:33:18;;;;;;;1999.90;999.90;;;10.40;99.90;;;;;;5050011;28;20458;-68
2022/11/07 03:35:45;;;;;;;1999.90;999.90;;;10.40;99.90;;;;;;5058901;28;20907;-69
2022/11/07 03:38:12;;;;;;;1999.90;999.90;;;10.40;99.90;;;;;;5071709;28;20458;-68
2022/11/07 03:40:39;;;;;;;1999.90;999.90;;;10.50;99.90;;;;;;5067794;28;20485;-68
2022/11/07 03:43:05;;;;;;;1999.90;999.90;;;10.50;99.90;;;;;;5071447;28;20450;-69
2022/11/07 03:45:32;;;;;;;1999.90;999.90;;;10.40;99.90;;;;;;5068196;28;20455;-68
2022/11/07 03:47:59;;;;;;;1999.90;999.90;;;10.40;99.90;;;;;;5066768;28;20458;-68
2022/11/07 03:50:27;;;;;;;1999.90;999.90;;;10.40;99.90;;;;;;5051230;28;20489;-69
2022/11/07 03:52:54;;;;;;;1999.90;999.90;;;10.40;99.90;;;;;;5050146;28;20469;-69
2022/11/07 03:55:21;;;;;;;1999.90;999.90;;;10.40;99.90;;;;;;5050597;28;20482;-69
2022/11/07 03:57:48;;;;;;;1999.90;999.90;;;10.50;99.90;;;;;;5050805;28;20465;-68
2022/11/07 04:00:16;;;;;;;1999.90;999.90;;;10.50;99.90;;;;;;5048593;28;20489;-68
2022/11/07 04:02:43;;;;;;;1999.90;999.90;;;10.50;99.90;;;;;;5048420;28;20524;-68
2022/11/07 04:05:11;;;;;;;1999.90;999.90;;;10.50;99.90;;;;;;5050218;28;20534;-68
2022/11/07 04:07:39;;;;;;;1999.90;999.90;;;10.40;99.90;;;;;;5049982;28;20516;-68
2022/11/07 04:10:06;;;;;;;1999.90;999.90;;;10.40;99.90;;;;;;5049302;28;20489;-69
2022/11/07 04:18:01;;;;;;;1999.90;999.90;;;10.50;99.90;;;;;;5049034;28;20461;-69
2022/11/07 04:20:28;;;;;;;1999.90;999.90;;;10.50;99.90;;;;;;5049599;28;20478;-71
2022/11/07 04:22:56;;;;;;;1999.90;999.90;;;10.50;99.90;;;;;;5049206;28;20462;-70
2022/11/07 04:27:41;;;;;;;1999.90;999.90;;;10.50;99.90;;;;;;5049139;28;20454;-70
2022/11/07 04:28:10;;;;;;;1999.90;999.90;;;10.50;99.90;;;;;;5046584;28;20505;-70
2022/11/07 04:30:36;;;;;;;1999.90;999.90;;;10.50;99.90;;;;;;5049411;28;20509;-69
2022/11/07 04:33:03;;;;;;;1999.90;999.90;;;10.40;99.90;;;;;;5049142;28;20458;-69
2022/11/07 04:35:31;;;;;;;1999.90;999.90;;;10.50;99.90;;;;;;5049117;28;20474;-68
2022/11/07 04:38:00;;;;;;;1999.90;999.90;;;10.50;99.90;;;;;;5049019;28;20462;-68
2022/11/07 04:40:27;;;;;;;1999.90;999.90;;;10.60;99.90;;;;;;5044710;28;20478;-70
2022/11/07 04:42:55;;;;;;;1999.90;999.90;;;10.50;99.90;;;;;;5049220;28;20462;-68
2022/11/07 04:45:22;;;;;;;1999.90;999.90;;;10.60;99.90;;;;;;5048945;28;20470;-69
2022/11/07 04:47:49;;;;;;;1999.90;999.90;;;10.60;99.90;;;;;;5048799;28;20466;-69
2022/11/07 04:50:18;;;;;;;1999.90;999.90;;;10.50;99.90;;;;;;5048006;28;20486;-71
2022/11/07 04:52:45;;;;;;;1999.90;999.90;;;10.50;99.90;;;;;;5046599;28;20476;-71
2022/11/07 04:55:19;;;;;;;1999.90;999.90;;;10.40;99.90;;;;;;5048986;28;20478;-67
2022/11/07 04:57:46;;;;;;;1999.90;999.90;;;10.40;99.90;;;;;;5046910;28;20529;-68
2022/11/07 05:00:14;;;;;;;1999.90;999.90;;;10.60;99.90;;;;;;5048749;28;20477;-68
2022/11/07 05:02:41;;;;;;;1999.90;999.90;;;10.70;99.90;;;;;;5048742;28;20475;-70
2022/11/07 05:05:09;;;;;;;1999.90;999.90;;;10.60;99.90;;;;;;5047693;28;20468;-69
2022/11/07 05:07:35;;;;;;;1999.90;999.90;;;10.70;99.90;;;;;;5049352;28;20625;-68
2022/11/07 05:10:02;;;;;;;1999.90;999.90;;;10.70;99.90;;;;;;5049176;28;20490;-68
2022/11/07 05:12:30;;;;;;;1999.90;999.90;;;10.70;99.90;;;;;;5044689;28;20469;-69
2022/11/07 05:14:57;;;;;;;1999.90;999.90;;;10.60;99.90;;;;;;5037579;28;20463;-69
2022/11/07 05:17:24;;;;;;;1999.90;999.90;;;10.70;99.90;;;;;;5056529;28;20458;-70
2022/11/07 05:19:51;;;;;;;1999.90;999.90;;;10.70;99.90;;;;;;5061001;28;21008;-68
2022/11/07 05:25:02;;;;;;;1999.90;999.90;;;10.80;99.90;;;;;;5049244;28;20466;-68
2022/11/07 05:27:30;;;;;;;1999.90;999.90;;;10.80;99.90;;;;;;5038080;28;20467;-67
2022/11/07 05:29:56;;;;;;;1999.90;999.90;;;10.70;99.90;;;;;;5036315;28;20597;-69
2022/11/07 05:32:23;;;;;;;1999.90;999.90;;;10.60;99.90;;;;;;5042597;28;20466;-69
2022/11/07 05:34:50;;;;;;;1999.90;999.90;;;10.60;99.90;;;;;;5047323;28;20473;-67
2022/11/07 05:37:17;;;;;;;1999.90;999.90;;;10.70;99.90;;;;;;5047694;28;20486;-70
2022/11/07 05:39:44;;;;;;;1999.90;999.90;;;10.60;99.90;;;;;;5047809;28;20477;-70
2022/11/07 05:42:10;;;;;;;1999.90;999.90;;;10.60;99.90;;;;;;5045614;28;20464;-69
2022/11/07 05:44:38;;;;;;;1999.90;999.90;;;10.60;99.90;;;;;;5044068;28;20462;-70
2022/11/07 05:47:05;;;;;;;1999.90;999.90;;;10.50;99.90;;;;;;5042799;28;20446;-71
2022/11/07 05:49:32;;;;;;;1999.90;999.90;;;10.60;99.90;;;;;;5048888;28;20454;-68
2022/11/07 05:51:59;;;;;;;1999.90;999.90;;;10.60;99.90;;;;;;5047750;28;20465;-67
2022/11/07 05:54:26;;;;;;;1999.90;999.90;;;10.60;99.90;;;;;;5047995;28;20462;-68
2022/11/07 05:56:56;;;;;;;1999.90;999.90;;;10.60;99.90;;;;;;5047641;28;20486;-70
2022/11/07 05:59:23;;;;;;;1999.90;999.90;;;10.60;99.90;;;;;;5034833;28;20466;-68
2022/11/07 06:01:52;;;;;;;1999.90;999.90;;;10.60;99.90;;;;;;5045684;28;20473;-70
2022/11/07 06:04:19;;;;;;;1999.90;999.90;;;10.50;99.90;;;;;;5046806;28;20462;-69
2022/11/07 06:06:46;;;;;;;1999.90;999.90;;;10.60;99.90;;;;;;5045817;28;20958;-70
2022/11/07 06:09:12;;;;;;;1999.90;999.90;;;10.70;99.90;;;;;;5047434;28;20458;-70
2022/11/07 06:11:39;;;;;;;1999.90;999.90;;;10.70;99.90;;;;;;5043269;28;20553;-69
2022/11/07 06:14:06;;;;;;;1999.90;999.90;;;10.80;99.90;;;;;;5036766;28;20463;-70
2022/11/07 06:16:33;;;;;;;1999.90;999.90;;;10.90;99.90;;;;;;5043595;28;20477;-68
2022/11/07 06:19:02;;;;;;;1999.90;999.90;;;10.90;99.90;;;;;;5047560;28;20471;-71
2022/11/07 06:21:28;;;;;;;1999.90;999.90;;;11.00;99.90;;;;;;5048529;28;20555;-70
2022/11/07 06:23:55;;;;;;;1999.90;999.90;;;11.10;99.90;;;;;;5047714;28;20466;-69
2022/11/07 06:26:22;;;;;;;1999.90;999.90;;;11.10;99.90;;;;;;5046920;28;20462;-70
2022/11/07 06:28:49;;;;;;;1999.90;999.90;;;11.20;99.90;;;;;;5044181;28;20466;-69
2022/11/07 06:31:15;;;;;;;1999.90;999.90;;;11.20;99.90;;;;;;5046015;28;20496;-70
2022/11/07 06:33:42;;;;;;;1999.90;999.90;;;11.20;99.90;;;;;;5051242;28;20462;-68
2022/11/07 06:36:12;;;;;;;1999.90;999.90;;;11.20;99.90;;;;;;5071693;23;20494;-68
2022/11/07 06:38:39;;;;;;;1999.90;999.90;;;11.10;99.90;;;;;;5032289;28;20457;-64
2022/11/07 06:41:09;;;;;;;1999.90;999.90;;;11.10;99.90;;;;;;5031298;28;20459;-65
2022/11/07 06:43:36;;;;;;;1999.90;999.90;;;11.00;99.90;;;;;;5032751;28;20455;-68
2022/11/07 06:46:05;;;;;;;1999.90;999.90;;;11.00;99.90;;;;;;5030009;28;20463;-68
2022/11/07 06:48:33;;;;;;;1999.90;999.90;;;10.90;99.90;;;;;;5029059;28;20455;-69
2022/11/07 06:51:01;;;;;;;1999.90;999.90;;;11.00;99.90;;;;;;5032604;28;20466;-68
2022/11/07 06:53:30;;;;;;;1999.90;999.90;;;10.90;99.90;;;;;;5034387;28;20463;-69
2022/11/07 06:55:59;;;;;;;1999.90;999.90;;;10.80;99.90;;;;;;5032509;28;20493;-68
2022/11/07 06:58:26;;;;;;;1999.90;999.90;;;10.80;99.90;;;;;;5034348;28;20464;-69
2022/11/07 07:00:57;;;;;;;1999.90;999.90;;;10.70;99.90;;;;;;5032341;28;20554;-66
2022/11/07 07:03:24;;;;;;;1999.90;999.90;;;10.70;99.90;;;;;;5033402;28;20479;-67
2022/11/07 07:05:51;;;;;;;1999.90;999.90;;;10.80;99.90;;;;;;5035291;28;20431;-67
2022/11/07 07:08:17;;;;;;;1999.90;999.90;;;10.90;99.90;;;;;;5035933;28;20951;-66
2022/11/07 07:10:46;;;;;;;1999.90;999.90;;;10.90;99.90;;;;;;5031637;28;20468;-67
2022/11/07 07:13:14;;;;;;;1999.90;999.90;;;11.00;99.90;;;;;;5033038;28;20460;-67
2022/11/07 07:15:40;;;;;;;1999.90;999.90;;;11.00;99.90;;;;;;5033595;28;20447;-66
2022/11/07 07:18:07;;;;;;;1999.90;999.90;;;10.90;99.90;;;;;;5035594;28;20474;-63
2022/11/07 07:20:34;;;;;;;1999.90;999.90;;;10.90;99.90;;;;;;5035049;28;20443;-67
2022/11/07 07:23:01;;;;;;;1999.90;999.90;;;11.10;99.90;;;;;;5035417;28;20546;-68
2022/11/07 07:25:28;;;;;;;1999.90;999.90;;;11.20;99.90;;;;;;5032451;28;20466;-68
2022/11/07 07:27:56;;;;;;;1999.90;999.90;;;11.30;99.90;;;;;;5028582;28;20478;-68
2022/11/07 07:30:22;;;;;;;1999.90;999.90;;;11.50;99.90;;;;;;5030070;28;20474;-69
2022/11/07 07:32:49;;;;;;;1999.90;999.90;;;11.70;99.90;;;;;;5030566;28;20467;-66
2022/11/07 07:35:16;;;;;;;1999.90;999.90;;;11.90;99.90;;;;;;5019215;28;20463;-69
2022/11/07 07:37:43;;;;;;;1999.90;999.90;;;12.10;99.90;;;;;;5030425;28;20490;-68
2022/11/07 07:40:11;;;;;;;1999.90;999.90;;;12.20;99.90;;;;;;5038355;28;20451;-63
2022/11/07 07:42:42;;;;;;;1999.90;999.90;;;12.20;99.90;;;;;;5020517;28;20459;-68
2022/11/07 07:45:11;;;;;;;1999.90;999.90;;;12.20;99.90;;;;;;5030164;28;20498;-67
2022/11/07 07:47:39;;;;;;;1999.90;999.90;;;12.40;99.90;;;;;;5029109;28;20485;-71
2022/11/07 07:50:08;;;;;;;1999.90;999.90;;;12.40;99.90;;;;;;5031231;28;20455;-66
2022/11/07 07:52:35;;;;;;;1999.90;999.90;;;12.50;99.90;;;;;;5028333;28;20463;-65
2022/11/07 07:55:02;;;;;;;1999.90;999.90;;;12.50;99.90;;;;;;5025610;28;20452;-66
2022/11/07 07:57:29;;;;;;;1999.90;999.90;;;12.60;99.90;;;;;;5029911;28;20495;-67
2022/11/07 07:59:56;;;;;;;1999.90;999.90;;;12.50;99.90;;;;;;5030748;28;20467;-65
2022/11/07 08:02:24;;;;;;;1999.90;999.90;;;12.50;99.90;;;;;;5028637;28;20854;-67
2022/11/07 08:04:50;;;;;;;1999.90;999.90;;;12.50;99.90;;;;;;5029384;28;20970;-65
2022/11/07 08:07:17;;;;;;;1999.90;999.90;;;12.60;99.90;;;;;;5029898;28;20865;-66
2022/11/07 08:09:44;;;;;;;1999.90;999.90;;;12.70;99.90;;;;;;5030078;28;20463;-67
2022/11/07 08:12:11;;;;;;;1999.90;999.90;;;12.80;99.90;;;;;;5031111;28;20470;-68
2022/11/07 08:14:38;;;;;;;1999.90;999.90;;;12.70;99.90;;;;;;5030144;28;20853;-69
2022/11/07 08:17:05;;;;;;;1999.90;999.90;;;12.80;99.90;;;;;;5029643;28;20874;-68
2022/11/07 08:19:33;;;;;;;1999.90;999.90;;;12.90;99.90;;;;;;5029061;28;20530;-67
2022/11/07 08:22:00;;;;;;;1999.90;999.90;;;12.90;99.90;;;;;;5029910;28;20468;-69
2022/11/07 08:24:26;;;;;;;1999.90;999.90;;;13.00;99.90;;;;;;5029199;28;20467;-66
2022/11/07 08:26:53;;;;;;;1999.90;999.90;;;13.00;99.90;;;;;;5028771;28;20487;-64
2022/11/07 08:29:21;;;;;;;1999.90;999.90;;;13.00;99.90;;;;;;5026905;28;20472;-67
2022/11/07 08:31:49;;;;;;;1999.90;999.90;;;13.00;99.90;;;;;;5027540;28;20455;-67
2022/11/07 08:34:17;;;;;;;1999.90;999.90;;;13.10;99.90;;;;;;5030787;28;20475;-68
2022/11/07 08:36:45;;;;;;;1999.90;999.90;;;13.10;99.90;;;;;;5030652;28;20553;-67
2022/11/07 08:39:12;;;;;;;1999.90;999.90;;;13.10;99.90;;;;;;5029112;28;20463;-68
2022/11/07 08:41:39;;;;;;;1999.90;999.90;;;13.00;99.90;;;;;;5029211;28;20472;-65
2022/11/07 08:44:07;;;;;;;1999.90;999.90;;;13.10;99.90;;;;;;5029067;28;20477;-65
2022/11/07 08:46:34;;;;;;;1999.90;999.90;;;12.80;99.90;;;;;;5026809;28;20519;-66
2022/11/07 08:49:00;;;;;;;1999.90;999.90;;;12.80;99.90;;;;;;5029895;28;20474;-66
2022/11/07 08:51:27;;;;;;;1999.90;999.90;;;12.80;99.90;;;;;;5029915;28;20463;-67
2022/11/07 08:53:55;;;;;;;1999.90;999.90;;;12.80;99.90;;;;;;5029526;28;20470;-67
2022/11/07 08:56:22;;;;;;;1999.90;999.90;;;12.90;99.90;;;;;;5028707;28;20487;-68
2022/11/07 08:58:49;;;;;;;1999.90;999.90;;;13.10;99.90;;;;;;5028650;28;20494;-69
2022/11/07 09:01:16;;;;;;;1999.90;999.90;;;13.20;99.90;;;;;;5029072;28;21102;-64
2022/11/07 09:03:43;;;;;;;1999.90;999.90;;;13.30;99.90;;;;;;5030030;28;20455;-67
2022/11/07 09:06:10;;;;;;;1999.90;999.90;;;13.40;99.90;;;;;;5030047;28;20478;-67
2022/11/07 09:08:37;;;;;;;1999.90;999.90;;;13.40;99.90;;;;;;5028086;28;20466;-68
2022/11/07 09:11:06;;;;;;;1999.90;999.90;;;13.50;99.90;;;;;;5028907;28;20542;-68
2022/11/07 09:13:34;;;;;;;1999.90;999.90;;;13.60;99.90;;;;;;5029615;28;20461;-67
2022/11/07 09:16:02;;;;;;;1999.90;999.90;;;13.60;99.90;;;;;;5026644;28;20963;-68
2022/11/07 09:18:29;;;;;;;1999.90;999.90;;;13.60;99.90;;;;;;5028999;28;20971;-67
2022/11/07 09:20:57;;;;;;;1999.90;999.90;;;13.60;99.90;;;;;;5031788;28;20479;-69
2022/11/07 09:23:24;;;;;;;1999.90;999.90;;;13.70;99.90;;;;;;5033069;28;20447;-68
2022/11/07 09:25:51;;;;;;;1999.90;999.90;;;13.70;99.90;;;;;;5031406;28;20453;-62
2022/11/07 09:28:19;;;;;;;1999.90;999.90;;;13.60;99.90;;;;;;5029749;28;20454;-64
2022/11/07 09:30:46;;;;;;;1999.90;999.90;;;13.60;99.90;;;;;;5029361;28;20463;-65
2022/11/07 09:33:13;;;;;;;1999.90;999.90;;;13.50;99.90;;;;;;5031094;28;20519;-66
2022/11/07 09:35:40;;;;;;;1999.90;999.90;;;13.50;99.90;;;;;;5030161;28;20967;-67
2022/11/07 09:38:06;;;;;;;1999.90;999.90;;;13.50;99.90;;;;;;5030350;28;20491;-67
2022/11/07 09:40:41;;;;;;;1999.90;999.90;;;13.60;99.90;;;;;;5030338;28;20474;-68
2022/11/07 09:43:38;;;;;;;1999.90;999.90;;;13.60;99.90;;;;;;5032401;28;20442;-67
2022/11/07 09:46:22;;;;;;;1999.90;999.90;;;13.70;99.90;;;;;;5031357;28;20447;-70
2022/11/07 09:48:53;;;;;;;1999.90;999.90;;;13.70;99.90;;;;;;5031115;28;20843;-69
2022/11/07 09:51:27;;;;;;;1999.90;999.90;;;13.70;99.90;;;;;;5033348;28;20971;-68
2022/11/07 09:53:58;;;;;;;1999.90;999.90;;;13.70;99.90;;;;;;5032120;28;20455;-68
2022/11/07 09:56:26;;;;;;;1999.90;999.90;;;13.80;99.90;;;;;;5031061;28;20513;-69
2022/11/07 09:58:57;;;;;;;1999.90;999.90;;;13.90;99.90;;;;;;5033187;28;20455;-68
2022/11/07 10:01:28;;;;;;;1999.90;999.90;;;14.00;99.90;;;;;;5035164;28;20459;-68
2022/11/07 10:03:55;;;;;;;1999.90;999.90;;;14.00;99.90;;;;;;5035899;28;20444;-68
2022/11/07 10:06:24;;;;;;;1999.90;999.90;;;14.10;99.90;;;;;;5035240;28;20474;-71
2022/11/07 10:08:58;;;;;;;1999.90;999.90;;;14.20;99.90;;;;;;5035744;28;20447;-68
2022/11/07 10:11:33;;;;;;;1999.90;999.90;;;14.30;99.90;;;;;;5036181;28;20454;-68
2022/11/07 10:14:12;;;;;;;1999.90;999.90;;;14.20;99.90;;;;;;5035351;28;20442;-67
2022/11/07 10:16:53;;;;;;;1999.90;999.90;;;14.20;99.90;;;;;;5028794;28;20519;-68
2022/11/07 10:19:29;;;;;;;1999.90;999.90;;;14.10;99.90;;;;;;5031251;28;20469;-68
2022/11/07 10:22:10;;;;;;;1999.90;999.90;;;14.20;99.90;;;;;;5029781;28;20515;-65
2022/11/07 10:24:49;;;;;;;1999.90;999.90;;;14.10;99.90;;;;;;5032917;28;20462;-66
2022/11/07 10:27:16;;;;;;;1999.90;999.90;;;14.10;99.90;;;;;;5033932;28;20459;-67
2022/11/07 10:29:49;;;;;;;1999.90;999.90;;;14.10;99.90;;;;;;5036434;28;20872;-67
2022/11/07 10:32:22;;;;;;;1999.90;999.90;;;14.00;99.90;;;;;;5035650;28;20469;-67
2022/11/07 10:34:56;;;;;;;1999.90;999.90;;;14.00;99.90;;;;;;5033009;28;20447;-65
2022/11/07 10:37:23;;;;;;;1999.90;999.90;;;14.00;99.90;;;;;;5033499;28;20497;-68
2022/11/07 10:39:50;;;;;;;1999.90;999.90;;;14.00;99.90;;;;;;5033353;28;20924;-68
2022/11/07 10:42:20;;;;;;;1999.90;999.90;;;14.00;99.90;;;;;;5033186;28;20558;-68
2022/11/07 10:44:49;;;;;;;1999.90;999.90;;;14.00;99.90;;;;;;5029621;28;20856;-67
2022/11/07 10:47:16;;;;;;;1999.90;999.90;;;14.00;99.90;;;;;;5032071;28;20505;-68
2022/11/07 10:49:54;;;;;;;1999.90;999.90;;;14.00;99.90;;;;;;5029243;28;20525;-68
2022/11/07 10:52:21;;;;;;;1999.90;999.90;;;14.10;99.90;;;;;;5035299;28;20431;-67
2022/11/07 10:54:48;;;;;;;1999.90;999.90;;;14.10;99.90;;;;;;5033104;28;20463;-66
2022/11/07 10:57:17;;;;;;;1999.90;999.90;;;14.20;99.90;;;;;;5032593;28;20478;-66
2022/11/07 10:59:53;;;;;;;1999.90;999.90;;;14.30;99.90;;;;;;5034294;28;20838;-66
2022/11/07 11:02:23;;;;;;;1999.90;999.90;;;14.40;99.90;;;;;;5035406;28;20443;-64
2022/11/07 11:04:52;;;;;;;1999.90;999.90;;;14.40;99.90;;;;;;5034466;28;20964;-67
2022/11/07 11:07:20;;;;;;;1999.90;999.90;;;14.30;99.90;;;;;;5034231;28;20478;-68
2022/11/07 11:09:51;;;;;;;1999.90;999.90;;;14.50;99.90;;;;;;5035207;28;20527;-66
2022/11/07 11:12:23;;;;;;;1999.90;999.90;;;14.50;99.90;;;;;;5034480;28;20454;-68
2022/11/07 11:14:50;;;;;;;1999.90;999.90;;;14.60;99.90;;;;;;5034572;28;20427;-69
2022/11/07 11:17:25;;;;;;;1999.90;999.90;;;14.70;99.90;;;;;;5034305;28;20570;-67
2022/11/07 11:19:53;;;;;;;1999.90;999.90;;;14.80;99.90;;;;;;5035117;28;20435;-68
2022/11/07 11:22:24;;;;;;;1999.90;999.90;;;14.80;99.90;;;;;;5034086;28;20478;-68
2022/11/07 11:24:59;;;;;;;1999.90;999.90;;;14.80;99.90;;;;;;5033923;28;20448;-68
2022/11/07 11:27:29;;;;;;;1999.90;999.90;;;14.80;99.90;;;;;;5032244;28;20463;-67
2022/11/07 11:30:01;;;;;;;1999.90;999.90;;;15.00;99.90;;;;;;5033831;28;20444;-67
2022/11/07 11:32:34;;;;;;;1999.90;999.90;;;15.00;99.90;;;;;;5034432;28;20915;-66
2022/11/07 11:35:13;;;;;;;1999.90;999.90;;;15.00;99.90;;;;;;5034380;28;20427;-66
2022/11/07 11:37:45;;;;;;;1999.90;999.90;;;15.10;99.90;;;;;;5027743;28;21021;-66
2022/11/07 11:40:17;;;;;;;1999.90;999.90;;;15.40;99.90;;;;;;5034052;28;20443;-68
2022/11/07 11:42:50;;;;;;;1999.90;999.90;;;15.80;99.90;;;;;;5033908;28;20493;-65
2022/11/07 11:45:24;;;;;;;1999.90;999.90;;;16.00;99.90;;;;;;5032802;28;20448;-68
2022/11/07 11:47:59;;;;;;;1999.90;999.90;;;16.20;99.90;;;;;;5033863;28;20838;-68
2022/11/07 11:50:31;;;;;;;1999.90;999.90;;;16.00;99.90;;;;;;5032620;28;20466;-67
2022/11/07 11:52:59;;;;;;;1999.90;999.90;;;16.20;99.90;;;;;;5033056;28;20447;-68
2022/11/07 11:55:35;;;;;;;1999.90;999.90;;;16.10;99.90;;;;;;5012530;28;20455;-66
2022/11/07 11:58:13;;;;;;;1999.90;999.90;;;16.30;99.90;;;;;;5013504;28;20502;-67
2022/11/07 12:00:47;;;;;;;1999.90;999.90;;;16.10;99.90;;;;;;5013653;28;20448;-67
2022/11/07 12:03:40;;;;;;;1999.90;999.90;;;15.80;99.90;;;;;;5013118;28;20439;-66
2022/11/07 12:06:15;;;;;;;1999.90;999.90;;;15.80;99.90;;;;;;5020721;28;20495;-67
2022/11/07 12:09:11;;;;;;;1999.90;999.90;;;15.80;99.90;;;;;;5033190;28;20800;-65
2022/11/07 12:11:48;;;;;;;1999.90;999.90;;;15.80;99.90;;;;;;5033018;28;20450;-68
2022/11/07 12:14:54;;;;;;;1999.90;999.90;;;15.80;99.90;;;;;;5033076;28;20431;-68
2022/11/07 12:17:27;;;;;;;1999.90;999.90;;;15.90;99.90;;;;;;5032822;28;20491;-67